LTM weather

Lethem Airport
Lethem, Upper Takutu-Upper Essequibo, Guyana

Public forecast

Using degrees Celsius for public forecast. Weather courtesy of forecast.io.

Current aviation weather report (METAR) for Lethem Airport

Report is more than 6 hours old.

Retrieved 2019/10/15 21:00 UTC (14 hours ago):

SYLT 152100Z 10006KT 9999 FEW022CB 32/24 Q//// CB ALQDS NOSIG

Aviation forecast (TAF) for Lethem Airport

Forecast is more than 12 hours old.

Retrieved 2019/10/15 12:00 UTC (23 hours ago):

TAF SYLT 151000Z 1512/1523 20006KT 7000 SHRA FEW016CB BKN020 BKN090